createdAt,value
2023-04-27T00:00:03.403Z,22.90
2023-04-27T00:01:03.629Z,22.90
2023-04-27T00:02:03.645Z,22.90
2023-04-27T00:03:03.691Z,22.88
2023-04-27T00:04:03.791Z,22.87
2023-04-27T00:05:04.009Z,22.88
2023-04-27T00:06:03.923Z,22.87
2023-04-27T00:07:03.789Z,22.85
2023-04-27T00:08:03.844Z,22.85
2023-04-27T00:09:03.918Z,22.85
2023-04-27T00:10:04.038Z,22.84
2023-04-27T00:11:04.042Z,22.83
2023-04-27T00:12:04.084Z,22.83
2023-04-27T00:13:04.171Z,22.82
2023-04-27T00:14:04.167Z,22.82
2023-04-27T00:15:04.285Z,22.81
2023-04-27T00:16:04.348Z,22.79
2023-04-27T00:17:04.419Z,22.78
2023-04-27T00:18:04.562Z,22.78
2023-04-27T00:19:04.552Z,22.77
2023-04-27T00:20:04.599Z,22.76
2023-04-27T00:21:04.604Z,22.75
2023-04-27T00:22:04.669Z,22.74
2023-04-27T00:23:04.701Z,22.73
2023-04-27T00:24:04.774Z,22.72
2023-04-27T00:25:04.815Z,22.71
2023-04-27T00:26:04.893Z,22.71
2023-04-27T00:27:04.926Z,22.71
2023-04-27T00:28:05.006Z,22.71
2023-04-27T00:29:05.042Z,22.72
2023-04-27T00:30:05.114Z,22.72
2023-04-27T00:31:05.178Z,22.73
2023-04-27T00:32:05.261Z,22.73
2023-04-27T00:33:05.307Z,22.73
2023-04-27T00:34:05.358Z,22.72
2023-04-27T00:35:05.412Z,22.73
2023-04-27T00:36:05.532Z,22.71
2023-04-27T00:37:05.636Z,22.71
2023-04-27T00:38:05.584Z,22.71
2023-04-27T00:39:05.679Z,22.70
2023-04-27T00:40:05.740Z,22.69
2023-04-27T00:41:05.809Z,22.68
2023-04-27T00:42:05.808Z,22.67
2023-04-27T00:43:05.847Z,22.66
2023-04-27T00:44:05.897Z,22.65
2023-04-27T00:45:05.927Z,22.64
2023-04-27T00:46:05.977Z,22.65
2023-04-27T00:47:06.123Z,22.65
2023-04-27T00:48:06.083Z,22.65
2023-04-27T00:49:06.079Z,22.65
2023-04-27T00:50:06.092Z,22.64
2023-04-27T00:51:06.143Z,22.64
2023-04-27T00:52:06.260Z,22.63
2023-04-27T00:53:06.257Z,22.64
2023-04-27T00:54:06.283Z,22.63
2023-04-27T00:55:06.304Z,22.64
2023-04-27T00:56:06.381Z,22.64
2023-04-27T00:57:06.399Z,22.64
2023-04-27T00:58:06.500Z,22.63
2023-04-27T00:59:06.544Z,22.64
2023-04-27T01:00:06.633Z,22.64
2023-04-27T01:01:06.657Z,22.64
2023-04-27T01:02:06.663Z,22.62
2023-04-27T01:03:06.749Z,22.61
2023-04-27T01:04:06.848Z,22.61
2023-04-27T01:05:06.741Z,22.60
2023-04-27T01:06:06.754Z,22.59
2023-04-27T01:07:06.791Z,22.60
2023-04-27T01:08:06.803Z,22.58
2023-04-27T01:09:06.821Z,22.58
2023-04-27T01:10:06.816Z,22.57
2023-04-27T01:11:06.876Z,22.56
2023-04-27T01:12:06.911Z,22.56
2023-04-27T01:13:06.907Z,22.55
2023-04-27T01:14:06.849Z,22.54
2023-04-27T01:15:06.844Z,22.54
2023-04-27T01:16:06.859Z,22.55
2023-04-27T01:17:06.969Z,22.54
2023-04-27T01:18:06.874Z,22.53
2023-04-27T01:19:06.834Z,22.53
2023-04-27T01:20:06.861Z,22.52
2023-04-27T01:21:06.855Z,22.51
2023-04-27T01:22:06.862Z,22.51
2023-04-27T01:23:06.820Z,22.50
2023-04-27T01:24:06.821Z,22.50
2023-04-27T01:25:06.832Z,22.52
2023-04-27T01:26:06.806Z,22.51
2023-04-27T01:27:06.842Z,22.50
2023-04-27T01:28:06.832Z,22.51
2023-04-27T01:29:06.832Z,22.50
2023-04-27T01:30:06.819Z,22.49
2023-04-27T01:31:06.848Z,22.49
2023-04-27T01:32:06.834Z,22.48
2023-04-27T01:33:06.811Z,22.48
2023-04-27T01:34:06.785Z,22.48
2023-04-27T01:35:06.867Z,22.47
2023-04-27T01:36:06.805Z,22.46
2023-04-27T01:37:06.803Z,22.47
2023-04-27T01:38:06.807Z,22.45
2023-04-27T01:39:06.827Z,22.45
2023-04-27T01:40:06.845Z,22.44
2023-04-27T01:41:06.829Z,22.43
2023-04-27T01:42:06.845Z,22.41
2023-04-27T01:43:06.840Z,22.41
2023-04-27T01:44:06.820Z,22.41
2023-04-27T01:45:06.845Z,22.40
2023-04-27T01:46:06.870Z,22.39
2023-04-27T01:47:06.848Z,22.39
2023-04-27T01:48:06.898Z,22.38
2023-04-27T01:49:06.862Z,22.39
2023-04-27T01:50:06.876Z,22.38
2023-04-27T01:51:06.874Z,22.38
2023-04-27T01:52:06.883Z,22.37
2023-04-27T01:53:06.908Z,22.36
2023-04-27T01:54:06.901Z,22.35
2023-04-27T01:55:06.897Z,22.35
2023-04-27T01:56:06.906Z,22.34
2023-04-27T01:57:06.948Z,22.33
2023-04-27T01:58:06.943Z,22.32
2023-04-27T01:59:06.972Z,22.30
2023-04-27T02:00:06.979Z,22.30
2023-04-27T02:01:07.040Z,22.30
2023-04-27T02:02:07.164Z,22.29
2023-04-27T02:03:07.077Z,22.28
2023-04-27T02:04:07.183Z,22.27
2023-04-27T02:05:07.066Z,22.28
2023-04-27T02:06:07.066Z,22.27
2023-04-27T02:07:07.111Z,22.26
2023-04-27T02:08:07.119Z,22.26
2023-04-27T02:09:07.137Z,22.25
2023-04-27T02:10:07.145Z,22.24
2023-04-27T02:11:07.224Z,22.22
2023-04-27T02:12:07.154Z,22.22
2023-04-27T02:13:07.220Z,22.22
2023-04-27T02:14:07.238Z,22.20
2023-04-27T02:15:07.245Z,22.19
2023-04-27T02:16:07.321Z,22.19
2023-04-27T02:17:07.277Z,22.18
2023-04-27T02:18:07.405Z,22.17
2023-04-27T02:19:07.342Z,22.18
2023-04-27T02:20:07.401Z,22.18
2023-04-27T02:21:07.420Z,22.19
2023-04-27T02:22:07.396Z,22.19
2023-04-27T02:23:07.426Z,22.20
2023-04-27T02:24:07.412Z,22.20
2023-04-27T02:25:07.450Z,22.21
2023-04-27T02:26:07.507Z,22.20
2023-04-27T02:27:07.493Z,22.18
2023-04-27T02:28:07.509Z,22.17
2023-04-27T02:29:07.548Z,22.16
2023-04-27T02:30:07.566Z,22.15
2023-04-27T02:31:07.614Z,22.14
2023-04-27T02:32:07.593Z,22.15
2023-04-27T02:33:07.708Z,22.15
2023-04-27T02:34:07.653Z,22.16
2023-04-27T02:35:07.681Z,22.17
2023-04-27T02:36:07.703Z,22.18
2023-04-27T02:37:07.732Z,22.19
2023-04-27T02:38:07.719Z,22.20
2023-04-27T02:39:07.752Z,22.19
2023-04-27T02:40:07.765Z,22.19
2023-04-27T02:41:07.799Z,22.18
2023-04-27T02:42:07.864Z,22.17
2023-04-27T02:43:07.849Z,22.15
2023-04-27T02:44:07.861Z,22.14
2023-04-27T02:45:07.884Z,22.15
2023-04-27T02:46:07.922Z,22.14
2023-04-27T02:47:08.071Z,22.13
2023-04-27T02:48:08.053Z,22.13
2023-04-27T02:49:08.013Z,22.12
2023-04-27T02:50:08.093Z,22.12
2023-04-27T02:51:08.123Z,22.12
2023-04-27T02:52:08.132Z,22.12
2023-04-27T02:53:08.204Z,22.11
2023-04-27T02:54:08.157Z,22.11
2023-04-27T02:55:08.226Z,22.11
2023-04-27T02:56:08.244Z,22.11
2023-04-27T02:57:08.252Z,22.11
2023-04-27T02:58:08.281Z,22.10
2023-04-27T02:59:08.343Z,22.11
2023-04-27T03:00:08.362Z,22.11
2023-04-27T03:01:08.408Z,22.10
2023-04-27T03:02:08.406Z,22.10
2023-04-27T03:03:08.583Z,22.09
2023-04-27T03:04:08.631Z,22.09
2023-04-27T03:05:08.541Z,22.08
2023-04-27T03:06:08.553Z,22.08
2023-04-27T03:07:08.597Z,22.08
2023-04-27T03:08:08.658Z,22.07
2023-04-27T03:09:08.658Z,22.06
2023-04-27T03:10:08.674Z,22.06
2023-04-27T03:11:08.723Z,22.05
2023-04-27T03:12:08.761Z,22.04
2023-04-27T03:13:08.844Z,22.03
2023-04-27T03:14:08.847Z,22.02
2023-04-27T03:15:08.883Z,22.00
2023-04-27T03:16:08.933Z,22.01
2023-04-27T03:17:08.973Z,22.01
2023-04-27T03:18:09.230Z,22.01
2023-04-27T03:19:09.049Z,22.01
2023-04-27T03:20:09.107Z,22.01
2023-04-27T03:21:09.125Z,22.01
2023-04-27T03:22:09.169Z,22.01
2023-04-27T03:23:09.243Z,22.01
2023-04-27T03:24:09.259Z,22.01
2023-04-27T03:25:09.344Z,22.01
2023-04-27T03:26:09.352Z,22.02
2023-04-27T03:27:09.409Z,22.02
2023-04-27T03:28:09.446Z,22.02
2023-04-27T03:29:09.475Z,22.01
2023-04-27T03:30:09.516Z,22.00
2023-04-27T03:31:09.599Z,22.00
2023-04-27T03:32:09.642Z,22.00
2023-04-27T03:33:09.720Z,21.99
2023-04-27T03:34:09.688Z,21.98
2023-04-27T03:35:09.735Z,21.98
2023-04-27T03:36:09.781Z,21.98
2023-04-27T03:37:09.867Z,21.96
2023-04-27T03:38:09.894Z,21.96
2023-04-27T03:39:09.951Z,21.95
2023-04-27T03:40:10.048Z,21.95
2023-04-27T03:41:10.043Z,21.94
2023-04-27T03:42:10.082Z,21.93
2023-04-27T03:43:10.168Z,21.93
2023-04-27T03:44:10.244Z,21.93
2023-04-27T03:45:10.246Z,21.93
2023-04-27T03:46:10.302Z,21.93
2023-04-27T03:47:10.361Z,21.94
2023-04-27T03:48:10.367Z,21.93
2023-04-27T03:49:10.464Z,21.93
2023-04-27T03:50:10.473Z,21.94
2023-04-27T03:51:10.574Z,21.93
2023-04-27T03:52:10.596Z,21.94
2023-04-27T03:53:10.602Z,21.94
2023-04-27T03:54:10.702Z,21.94
2023-04-27T03:55:10.728Z,21.95
2023-04-27T03:56:10.724Z,21.95
2023-04-27T03:57:10.820Z,21.94
2023-04-27T03:58:10.837Z,21.93
2023-04-27T03:59:10.986Z,21.91
2023-04-27T04:00:10.950Z,21.90
2023-04-27T04:01:11.040Z,21.88
2023-04-27T04:02:11.145Z,21.86
2023-04-27T04:03:11.241Z,21.89
2023-04-27T04:04:11.380Z,21.92
2023-04-27T04:05:11.254Z,21.97
2023-04-27T04:06:11.236Z,22.00
2023-04-27T04:07:11.263Z,22.05
2023-04-27T04:08:11.258Z,22.08
2023-04-27T04:09:11.412Z,22.10
2023-04-27T04:10:11.327Z,22.13
2023-04-27T04:11:11.332Z,22.16
2023-04-27T04:12:11.345Z,22.18
2023-04-27T04:13:11.328Z,22.19
2023-04-27T04:14:11.334Z,22.20
2023-04-27T04:15:11.349Z,22.21
2023-04-27T04:16:11.426Z,22.23
2023-04-27T04:17:11.456Z,22.24
2023-04-27T04:18:11.370Z,22.25
2023-04-27T04:19:11.473Z,22.27
2023-04-27T04:20:11.352Z,22.27
2023-04-27T04:21:11.321Z,22.27
2023-04-27T04:22:11.345Z,22.29
2023-04-27T04:23:11.356Z,22.28
2023-04-27T04:24:11.303Z,22.27
2023-04-27T04:25:11.377Z,22.27
2023-04-27T04:26:11.346Z,22.28
2023-04-27T04:27:11.340Z,22.30
2023-04-27T04:28:11.343Z,22.30
2023-04-27T04:29:11.472Z,22.30
2023-04-27T04:30:11.335Z,22.30
2023-04-27T04:31:11.357Z,22.30
2023-04-27T04:32:11.352Z,22.27
2023-04-27T04:33:11.329Z,22.23
2023-04-27T04:34:11.349Z,22.18
2023-04-27T04:35:11.387Z,22.14
2023-04-27T04:36:11.400Z,22.09
2023-04-27T04:37:11.455Z,22.06
2023-04-27T04:38:11.482Z,22.02
2023-04-27T04:39:11.555Z,21.99
2023-04-27T04:40:11.530Z,21.96
2023-04-27T04:41:11.542Z,21.94
2023-04-27T04:42:11.605Z,21.92
2023-04-27T04:43:11.656Z,21.90
2023-04-27T04:44:11.707Z,21.89
2023-04-27T04:45:11.773Z,21.87
2023-04-27T04:46:11.836Z,21.88
2023-04-27T04:47:12.019Z,21.87
2023-04-27T04:48:11.936Z,21.87
2023-04-27T04:49:12.176Z,21.87
2023-04-27T04:50:12.003Z,21.87
2023-04-27T04:51:12.081Z,21.85
2023-04-27T04:52:12.150Z,21.84
2023-04-27T04:53:12.222Z,21.84
2023-04-27T04:54:12.279Z,21.84
2023-04-27T04:55:12.304Z,21.83
2023-04-27T04:56:12.467Z,21.81
2023-04-27T04:57:12.485Z,21.81
2023-04-27T04:58:12.516Z,21.80
2023-04-27T04:59:13.004Z,21.79
2023-04-27T05:00:12.673Z,21.78
2023-04-27T05:01:12.722Z,21.77
2023-04-27T05:02:12.761Z,21.76
2023-04-27T05:03:13.040Z,21.75
2023-04-27T05:04:13.048Z,21.74
2023-04-27T05:05:12.997Z,21.75
2023-04-27T05:06:12.976Z,21.74
2023-04-27T05:07:15.064Z,21.74
2023-04-27T05:08:13.223Z,21.73
2023-04-27T05:09:13.510Z,21.73
2023-04-27T05:10:13.332Z,21.73
2023-04-27T05:11:13.377Z,21.71
2023-04-27T05:12:13.446Z,21.70
2023-04-27T05:13:13.461Z,21.70
2023-04-27T05:14:13.507Z,21.70
2023-04-27T05:15:13.543Z,21.69
2023-04-27T05:16:13.578Z,21.69
2023-04-27T05:17:13.589Z,21.68
2023-04-27T05:18:13.625Z,21.68
2023-04-27T05:19:13.876Z,21.67
2023-04-27T05:20:13.684Z,21.67
2023-04-27T05:21:13.649Z,21.64
2023-04-27T05:22:13.694Z,21.64
2023-04-27T05:23:13.721Z,21.64
2023-04-27T05:24:13.733Z,21.64
2023-04-27T05:25:13.711Z,21.63
2023-04-27T05:26:13.722Z,21.62
2023-04-27T05:27:13.749Z,21.61
2023-04-27T05:28:13.773Z,21.65
2023-04-27T05:29:14.130Z,21.72
2023-04-27T05:30:13.890Z,21.79
2023-04-27T05:31:13.945Z,21.87
2023-04-27T05:32:13.991Z,21.96
2023-04-27T05:33:13.995Z,22.04
2023-04-27T05:34:13.980Z,22.11
2023-04-27T05:35:14.009Z,22.17
2023-04-27T05:36:14.039Z,22.18
2023-04-27T05:37:14.022Z,22.17
2023-04-27T05:38:14.019Z,22.10
2023-04-27T05:39:14.248Z,22.05
2023-04-27T05:40:14.090Z,21.98
2023-04-27T05:41:14.142Z,21.98
2023-04-27T05:42:14.206Z,22.00
2023-04-27T05:43:14.263Z,22.03
2023-04-27T05:44:14.309Z,22.06
2023-04-27T05:45:14.325Z,22.06
2023-04-27T05:46:14.411Z,22.05
2023-04-27T05:47:14.415Z,22.10
2023-04-27T05:48:14.564Z,22.18
2023-04-27T05:49:14.612Z,22.26
2023-04-27T05:50:14.452Z,22.35
2023-04-27T05:51:14.457Z,22.45
2023-04-27T05:52:14.642Z,22.55
2023-04-27T05:53:14.586Z,22.64
2023-04-27T05:54:14.631Z,22.73
2023-04-27T05:55:14.644Z,22.83
2023-04-27T05:56:14.680Z,22.90
2023-04-27T05:57:14.688Z,22.98
2023-04-27T05:58:14.735Z,23.04
2023-04-27T05:59:14.993Z,23.08
2023-04-27T06:00:14.755Z,23.12
2023-04-27T06:01:14.701Z,23.17
2023-04-27T06:02:14.807Z,23.22
2023-04-27T06:03:14.860Z,23.27
2023-04-27T06:04:15.072Z,23.33
2023-04-27T06:05:14.804Z,23.38
2023-04-27T06:06:14.782Z,23.44
2023-04-27T06:07:16.170Z,23.48
2023-04-27T06:08:14.883Z,23.53
2023-04-27T06:09:15.325Z,23.57
2023-04-27T06:10:15.007Z,23.60
2023-04-27T06:11:15.054Z,23.64
2023-04-27T06:12:15.120Z,23.69
2023-04-27T06:13:15.181Z,23.74
2023-04-27T06:14:15.226Z,23.77
2023-04-27T06:15:15.318Z,23.81
2023-04-27T06:16:15.376Z,23.85
2023-04-27T06:17:15.419Z,23.87
2023-04-27T06:18:15.441Z,23.90
2023-04-27T06:19:15.776Z,23.93
2023-04-27T06:20:15.481Z,23.98
2023-04-27T06:21:15.514Z,24.00
2023-04-27T06:22:15.540Z,24.01
2023-04-27T06:23:15.676Z,24.03
2023-04-27T06:24:15.551Z,24.04
2023-04-27T06:25:15.594Z,24.08
2023-04-27T06:26:15.638Z,24.09
2023-04-27T06:27:15.667Z,24.10
2023-04-27T06:28:15.679Z,24.11
2023-04-27T06:29:15.902Z,24.14
2023-04-27T06:30:15.721Z,24.16
2023-04-27T06:31:15.714Z,24.18
2023-04-27T06:32:15.799Z,24.19
2023-04-27T06:33:15.756Z,24.22
2023-04-27T06:34:15.821Z,24.27
2023-04-27T06:35:15.773Z,24.30
2023-04-27T06:36:15.755Z,24.32
2023-04-27T06:37:16.197Z,24.35
2023-04-27T06:38:15.777Z,24.36
2023-04-27T06:39:15.967Z,24.38
2023-04-27T06:40:16.200Z,24.41
2023-04-27T06:41:15.738Z,24.42
2023-04-27T06:42:16.056Z,24.43
2023-04-27T06:43:15.777Z,24.47
2023-04-27T06:44:15.819Z,24.49
2023-04-27T06:45:16.189Z,24.51
2023-04-27T06:46:15.946Z,24.54
2023-04-27T06:47:15.993Z,24.55
2023-04-27T06:48:16.055Z,24.55
2023-04-27T06:49:16.686Z,24.57
2023-04-27T06:50:16.170Z,24.57
2023-04-27T06:51:16.246Z,24.58
2023-04-27T06:52:16.334Z,24.62
2023-04-27T06:53:16.386Z,24.64
2023-04-27T06:54:16.443Z,24.64
2023-04-27T06:55:16.518Z,24.67
2023-04-27T06:56:16.545Z,24.69
2023-04-27T06:57:16.749Z,24.70
2023-04-27T06:58:16.685Z,24.73
2023-04-27T06:59:16.741Z,24.75
2023-04-27T07:00:16.759Z,24.77
2023-04-27T07:01:16.813Z,24.79
2023-04-27T07:02:16.885Z,24.82
2023-04-27T07:03:17.113Z,24.82
2023-04-27T07:04:17.072Z,24.84
2023-04-27T07:05:17.013Z,24.87
2023-04-27T07:06:16.983Z,24.91
2023-04-27T07:07:17.025Z,24.92
2023-04-27T07:08:17.075Z,24.94
2023-04-27T07:09:26.959Z,24.94
2023-04-27T07:10:18.076Z,24.92
2023-04-27T07:11:17.112Z,24.89
2023-04-27T07:12:17.180Z,24.85
2023-04-27T07:13:17.291Z,24.80
2023-04-27T07:14:17.056Z,24.78
2023-04-27T07:15:17.074Z,24.74
2023-04-27T07:16:17.176Z,24.71
2023-04-27T07:17:17.048Z,24.72
2023-04-27T07:18:17.055Z,24.70
2023-04-27T07:19:17.116Z,24.69
2023-04-27T07:20:17.094Z,24.68
2023-04-27T07:21:17.190Z,24.67
2023-04-27T07:22:17.279Z,24.68
2023-04-27T07:23:17.287Z,24.67
2023-04-27T07:24:17.359Z,24.66
2023-04-27T07:25:17.436Z,24.66
2023-04-27T07:26:17.751Z,24.67
2023-04-27T07:27:17.563Z,24.66
2023-04-27T07:28:17.630Z,24.65
2023-04-27T07:29:26.368Z,24.65
2023-04-27T07:30:18.675Z,24.66
2023-04-27T07:31:17.697Z,24.66
2023-04-27T07:32:17.735Z,24.66
2023-04-27T07:33:17.896Z,24.66
2023-04-27T07:34:17.683Z,24.67
2023-04-27T07:35:17.621Z,24.70
2023-04-27T07:36:17.709Z,24.75
2023-04-27T07:37:17.589Z,24.76
2023-04-27T07:38:17.669Z,24.78
2023-04-27T07:39:17.703Z,24.80
2023-04-27T07:40:17.819Z,24.83
2023-04-27T07:41:17.819Z,24.86
2023-04-27T07:42:17.980Z,24.88
2023-04-27T07:43:17.901Z,24.90
2023-04-27T07:44:17.948Z,24.92
2023-04-27T07:45:17.988Z,24.95
2023-04-27T07:46:18.147Z,24.94
2023-04-27T07:47:18.062Z,24.94
2023-04-27T07:48:18.155Z,24.95
2023-04-27T07:49:18.178Z,24.95
2023-04-27T07:50:18.235Z,24.96
2023-04-27T07:51:18.255Z,24.99
2023-04-27T07:52:18.254Z,25.01
2023-04-27T07:53:18.319Z,25.03
2023-04-27T07:54:18.386Z,25.05
2023-04-27T07:55:18.430Z,25.06
2023-04-27T07:56:18.432Z,25.06
2023-04-27T07:57:18.461Z,25.08
2023-04-27T07:58:18.477Z,25.08
2023-04-27T07:59:18.486Z,25.10
2023-04-27T08:00:18.515Z,25.11
2023-04-27T08:01:21.287Z,25.13
2023-04-27T08:02:20.295Z,25.14
2023-04-27T08:03:18.664Z,25.15
2023-04-27T08:04:18.909Z,25.18
2023-04-27T08:05:19.032Z,25.20
2023-04-27T08:06:19.024Z,25.25
2023-04-27T08:07:19.402Z,25.27
2023-04-27T08:08:18.752Z,25.29
2023-04-27T08:09:18.741Z,25.31
2023-04-27T08:10:18.483Z,25.34
2023-04-27T08:11:18.481Z,25.37
2023-04-27T08:12:18.467Z,25.40
2023-04-27T08:13:18.495Z,25.42
2023-04-27T08:14:18.488Z,25.43
2023-04-27T08:15:18.465Z,25.43
2023-04-27T08:16:18.505Z,25.45
2023-04-27T08:17:18.521Z,25.45
2023-04-27T08:18:18.424Z,25.44
2023-04-27T08:19:18.424Z,25.43
2023-04-27T08:20:18.403Z,25.43
2023-04-27T08:21:18.397Z,25.42
2023-04-27T08:22:18.409Z,25.41
2023-04-27T08:23:18.378Z,25.42
2023-04-27T08:24:18.424Z,25.43
2023-04-27T08:25:18.427Z,25.44
2023-04-27T08:26:18.412Z,25.45
2023-04-27T08:27:18.393Z,25.46
2023-04-27T08:28:18.395Z,25.50
2023-04-27T08:29:26.829Z,25.54
2023-04-27T08:30:19.378Z,25.57
2023-04-27T08:31:18.399Z,25.58
2023-04-27T08:32:18.332Z,25.59
2023-04-27T08:33:18.320Z,25.59
2023-04-27T08:34:18.325Z,25.59
2023-04-27T08:35:18.318Z,25.58
2023-04-27T08:36:18.291Z,25.59
2023-04-27T08:37:18.290Z,25.61
2023-04-27T08:38:18.278Z,25.61
2023-04-27T08:39:18.536Z,25.62
2023-04-27T08:40:18.285Z,25.63
2023-04-27T08:41:21.858Z,25.64
2023-04-27T08:42:18.303Z,25.67
2023-04-27T08:43:18.236Z,25.69
2023-04-27T08:44:18.247Z,25.71
2023-04-27T08:45:18.278Z,25.73
2023-04-27T08:46:18.264Z,25.76
2023-04-27T08:47:23.515Z,25.78
2023-04-27T08:48:19.247Z,25.79
2023-04-27T08:49:18.405Z,25.80
2023-04-27T08:50:18.229Z,25.80
2023-04-27T08:51:18.187Z,25.82
2023-04-27T08:52:18.195Z,25.83
2023-04-27T08:53:18.168Z,25.86
2023-04-27T08:54:18.186Z,25.88
2023-04-27T08:55:18.180Z,25.90
2023-04-27T08:56:18.207Z,25.91
2023-04-27T08:57:18.282Z,25.94
2023-04-27T08:58:18.309Z,25.96
2023-04-27T08:59:18.346Z,25.97
2023-04-27T09:00:18.440Z,26.00
2023-04-27T09:01:18.468Z,26.03
2023-04-27T09:02:18.539Z,26.05
2023-04-27T09:03:18.719Z,26.09
2023-04-27T09:04:18.797Z,26.11
2023-04-27T09:05:18.664Z,26.13
2023-04-27T09:06:18.749Z,26.15
2023-04-27T09:07:18.761Z,26.18
2023-04-27T09:08:18.755Z,26.18
2023-04-27T09:09:18.778Z,26.20
2023-04-27T09:10:25.736Z,26.20
2023-04-27T09:11:18.840Z,26.23
2023-04-27T09:12:18.847Z,26.25
2023-04-27T09:13:19.209Z,26.26
2023-04-27T09:14:18.796Z,26.28
2023-04-27T09:15:18.787Z,26.31
2023-04-27T09:16:18.831Z,26.33
2023-04-27T09:17:18.800Z,26.37
2023-04-27T09:18:18.773Z,26.39
2023-04-27T09:19:18.759Z,26.42
2023-04-27T09:20:18.762Z,26.45
2023-04-27T09:21:18.808Z,26.47
2023-04-27T09:22:18.724Z,26.50
2023-04-27T09:23:18.711Z,26.53
2023-04-27T09:24:18.725Z,26.55
2023-04-27T09:25:18.693Z,26.57
2023-04-27T09:26:18.702Z,26.60
2023-04-27T09:27:18.666Z,26.65
2023-04-27T09:28:18.681Z,26.69
2023-04-27T09:29:18.700Z,26.73
2023-04-27T09:30:18.793Z,26.75
2023-04-27T09:31:18.773Z,26.74
2023-04-27T09:32:18.673Z,26.70
2023-04-27T09:33:18.669Z,26.69
2023-04-27T09:34:18.710Z,26.66
2023-04-27T09:35:18.740Z,26.46
2023-04-27T09:36:18.637Z,26.42
2023-04-27T09:37:18.614Z,26.39
2023-04-27T09:38:18.627Z,26.38
2023-04-27T09:39:18.585Z,26.36
2023-04-27T09:40:18.644Z,26.34
2023-04-27T09:41:18.607Z,26.33
2023-04-27T09:42:18.595Z,26.34
2023-04-27T09:43:18.577Z,26.33
2023-04-27T09:44:18.606Z,26.31
2023-04-27T09:45:18.570Z,26.30
2023-04-27T09:46:18.631Z,26.29
2023-04-27T09:47:18.569Z,26.29
2023-04-27T09:48:18.579Z,26.26
2023-04-27T09:49:18.558Z,26.28
2023-04-27T09:50:18.563Z,26.29
2023-04-27T09:51:18.523Z,26.32
2023-04-27T09:52:18.510Z,26.34
2023-04-27T09:53:18.584Z,26.32
2023-04-27T09:54:18.504Z,26.36
2023-04-27T09:55:18.548Z,26.39
2023-04-27T09:56:18.528Z,26.40
2023-04-27T09:57:18.554Z,26.40
2023-04-27T09:58:18.536Z,26.41
2023-04-27T09:59:18.482Z,26.43
2023-04-27T10:00:18.496Z,26.44
2023-04-27T10:01:18.543Z,26.45
2023-04-27T10:03:18.530Z,26.44
2023-04-27T10:04:18.616Z,26.42
2023-04-27T10:05:18.621Z,26.41
2023-04-27T10:06:18.432Z,26.41
2023-04-27T10:07:18.438Z,26.42
2023-04-27T10:08:18.430Z,26.40
2023-04-27T10:09:18.389Z,26.40
2023-04-27T10:10:18.617Z,26.39
2023-04-27T10:11:18.421Z,26.41
2023-04-27T10:12:18.495Z,26.43
2023-04-27T10:13:18.366Z,26.46
2023-04-27T10:14:18.384Z,26.50
2023-04-27T10:15:18.356Z,26.52
2023-04-27T10:16:18.360Z,26.55
2023-04-27T10:17:18.343Z,26.55
2023-04-27T10:18:18.366Z,26.57
2023-04-27T10:19:18.332Z,26.58
2023-04-27T10:20:18.359Z,26.60
2023-04-27T10:21:18.318Z,26.61
2023-04-27T10:22:18.356Z,26.62
2023-04-27T10:23:18.317Z,26.65
2023-04-27T10:24:18.307Z,26.65
2023-04-27T10:25:18.262Z,26.67
2023-04-27T10:26:18.325Z,26.67
2023-04-27T10:27:18.293Z,26.68
2023-04-27T10:28:18.793Z,26.69
2023-04-27T10:29:18.263Z,26.70
2023-04-27T10:30:18.419Z,26.70
2023-04-27T10:31:18.276Z,26.71
2023-04-27T10:32:18.253Z,26.71
2023-04-27T10:33:18.237Z,26.69
2023-04-27T10:34:20.683Z,26.68
2023-04-27T10:35:18.240Z,26.66
2023-04-27T10:36:18.251Z,26.66
2023-04-27T10:37:18.220Z,26.67
2023-04-27T10:38:18.195Z,26.68
2023-04-27T10:39:18.187Z,26.68
2023-04-27T10:40:18.235Z,26.68
2023-04-27T10:41:18.194Z,26.67
2023-04-27T10:42:18.192Z,26.66
2023-04-27T10:43:18.163Z,26.64
2023-04-27T10:44:18.164Z,26.62
2023-04-27T10:45:18.167Z,26.62
2023-04-27T10:46:18.184Z,26.64
2023-04-27T10:47:18.159Z,26.63
2023-04-27T10:48:18.181Z,26.63
2023-04-27T10:49:18.177Z,26.64
2023-04-27T10:50:18.152Z,26.59
2023-04-27T10:51:18.214Z,26.59
2023-04-27T10:52:18.115Z,26.62
2023-04-27T10:53:18.131Z,26.66
2023-04-27T10:54:18.110Z,26.67
2023-04-27T10:55:18.135Z,26.67
2023-04-27T10:56:18.078Z,26.71
2023-04-27T10:57:18.104Z,26.74
2023-04-27T10:58:18.098Z,26.77
2023-04-27T10:59:18.088Z,26.78
2023-04-27T11:00:18.157Z,26.78
2023-04-27T11:01:18.086Z,26.80
2023-04-27T11:02:18.152Z,26.80
2023-04-27T11:03:18.149Z,26.81
2023-04-27T11:04:18.116Z,26.84
2023-04-27T11:05:18.031Z,26.85
2023-04-27T11:06:18.028Z,26.87
2023-04-27T11:07:18.011Z,26.88
2023-04-27T11:08:17.992Z,26.90
2023-04-27T11:09:18.029Z,26.90
2023-04-27T11:10:18.099Z,26.92
2023-04-27T11:11:18.031Z,26.93
2023-04-27T11:12:18.046Z,26.95
2023-04-27T11:13:17.999Z,26.99
2023-04-27T11:14:17.973Z,27.03
2023-04-27T11:15:17.999Z,27.05
2023-04-27T11:16:18.102Z,27.09
2023-04-27T11:17:17.972Z,27.08
2023-04-27T11:18:17.932Z,27.08
2023-04-27T11:19:17.930Z,27.06
2023-04-27T11:20:17.985Z,27.06
2023-04-27T11:21:18.326Z,27.03
2023-04-27T11:22:17.927Z,26.99
2023-04-27T11:23:17.903Z,26.92
2023-04-27T11:24:18.307Z,26.89
2023-04-27T11:25:17.879Z,26.89
2023-04-27T11:26:17.931Z,26.89
2023-04-27T11:27:17.947Z,26.92
2023-04-27T11:28:17.880Z,26.94
2023-04-27T11:29:18.042Z,26.97
2023-04-27T11:30:18.301Z,27.00
2023-04-27T11:31:17.924Z,27.01
2023-04-27T11:32:17.829Z,27.01
2023-04-27T11:33:17.836Z,27.02
2023-04-27T11:34:19.424Z,27.05
2023-04-27T11:35:17.835Z,27.06
2023-04-27T11:36:17.845Z,27.09
2023-04-27T11:37:18.819Z,27.10
2023-04-27T11:38:17.944Z,27.11
2023-04-27T11:39:18.098Z,27.12
2023-04-27T11:40:18.008Z,27.13
2023-04-27T11:41:18.056Z,27.14
2023-04-27T11:42:18.098Z,27.13
2023-04-27T11:43:18.140Z,27.14
2023-04-27T11:44:18.203Z,27.17
2023-04-27T11:45:18.311Z,27.17
2023-04-27T11:46:18.311Z,27.16
2023-04-27T11:47:19.011Z,27.18
2023-04-27T11:48:18.356Z,27.21
2023-04-27T11:49:18.360Z,27.24
2023-04-27T11:50:18.806Z,27.27
2023-04-27T11:51:18.503Z,27.31
2023-04-27T11:52:18.471Z,27.32
2023-04-27T11:53:19.078Z,27.33
2023-04-27T11:54:18.490Z,27.34
2023-04-27T11:55:18.500Z,27.36
2023-04-27T11:56:18.582Z,27.28
2023-04-27T11:57:18.563Z,27.25
2023-04-27T11:58:18.654Z,27.16
2023-04-27T11:59:18.624Z,27.11
2023-04-27T12:00:18.708Z,27.06
2023-04-27T12:01:27.662Z,27.01
2023-04-27T12:02:19.980Z,26.96
2023-04-27T12:03:18.946Z,26.94
2023-04-27T12:04:19.182Z,26.93
2023-04-27T12:05:19.045Z,26.90
2023-04-27T12:06:32.225Z,26.92
2023-04-27T12:07:19.734Z,26.96
2023-04-27T12:08:18.715Z,26.99
2023-04-27T12:09:18.730Z,27.02
2023-04-27T12:10:18.697Z,27.02
2023-04-27T12:11:18.680Z,27.07
2023-04-27T12:12:18.720Z,27.10
2023-04-27T12:13:18.676Z,27.12
2023-04-27T12:14:18.648Z,27.13
2023-04-27T12:15:18.655Z,27.18
2023-04-27T12:16:18.680Z,27.22
2023-04-27T12:17:18.629Z,27.22
2023-04-27T12:18:18.627Z,27.20
2023-04-27T12:19:18.689Z,27.17
2023-04-27T12:20:18.698Z,27.12
2023-04-27T12:21:18.740Z,27.11
2023-04-27T12:22:18.821Z,27.11
2023-04-27T12:23:18.865Z,27.10
2023-04-27T12:24:18.940Z,27.13
2023-04-27T12:25:18.967Z,27.15
2023-04-27T12:26:19.002Z,27.16
2023-04-27T12:27:19.065Z,27.17
2023-04-27T12:28:19.154Z,27.17
2023-04-27T12:29:19.124Z,27.19
2023-04-27T12:30:19.157Z,27.23
2023-04-27T12:31:19.205Z,27.23
2023-04-27T12:32:19.185Z,27.25
2023-04-27T12:33:19.293Z,27.28
2023-04-27T12:34:19.280Z,27.29
2023-04-27T12:35:19.252Z,27.31
2023-04-27T12:36:19.252Z,27.33
2023-04-27T12:37:19.322Z,27.36
2023-04-27T12:38:19.324Z,27.39
2023-04-27T12:39:19.330Z,27.42
2023-04-27T12:40:19.367Z,27.43
2023-04-27T12:41:19.516Z,27.45
2023-04-27T12:42:19.354Z,27.47
2023-04-27T12:43:19.373Z,27.46
2023-04-27T12:44:19.366Z,27.44
2023-04-27T12:45:19.375Z,27.43
2023-04-27T12:46:19.427Z,27.40
2023-04-27T12:47:40.596Z,27.33
2023-04-27T12:48:20.405Z,27.27
2023-04-27T12:49:19.376Z,27.24
2023-04-27T12:50:19.407Z,27.21
2023-04-27T12:51:19.505Z,27.18
2023-04-27T12:52:19.383Z,27.13
2023-04-27T12:53:19.388Z,27.10